createdAt,value
2023-05-24T00:00:04.808Z,13.80
2023-05-24T00:01:04.793Z,14.40
2023-05-24T00:02:04.813Z,11.80
2023-05-24T00:03:04.981Z,15.80
2023-05-24T00:04:04.865Z,14.60
2023-05-24T00:05:04.829Z,13.40
2023-05-24T00:06:04.771Z,11.10
2023-05-24T00:07:04.918Z,17.10
2023-05-24T00:08:04.711Z,13.20
2023-05-24T00:09:04.674Z,13.20
2023-05-24T00:10:04.697Z,13.90
2023-05-24T00:11:04.671Z,13.50
2023-05-24T00:12:04.727Z,14.50
2023-05-24T00:13:04.630Z,13.40
2023-05-24T00:14:04.650Z,13.50
2023-05-24T00:15:04.631Z,16.60
2023-05-24T00:16:04.622Z,14.30
2023-05-24T00:17:04.679Z,11.90
2023-05-24T00:18:04.650Z,16.40
2023-05-24T00:19:04.574Z,14.10
2023-05-24T00:20:06.662Z,14.00
2023-05-24T00:21:04.548Z,13.10
2023-05-24T00:22:04.581Z,12.90
2023-05-24T00:23:04.543Z,17.20
2023-05-24T00:24:04.566Z,13.00
2023-05-24T00:25:04.518Z,17.10
2023-05-24T00:26:04.505Z,12.40
2023-05-24T00:27:04.483Z,13.30
2023-05-24T00:28:04.469Z,12.80
2023-05-24T00:29:04.481Z,15.50
2023-05-24T00:30:04.487Z,14.20
2023-05-24T00:31:04.438Z,13.90
2023-05-24T00:32:04.537Z,13.10
2023-05-24T00:33:04.519Z,15.40
2023-05-24T00:34:04.450Z,18.60
2023-05-24T00:35:04.410Z,16.30
2023-05-24T00:36:04.391Z,13.40
2023-05-24T00:37:04.370Z,13.30
2023-05-24T00:38:04.390Z,14.00
2023-05-24T00:39:04.357Z,12.00
2023-05-24T00:40:04.408Z,17.30
2023-05-24T00:41:04.341Z,11.30
2023-05-24T00:42:04.837Z,12.80
2023-05-24T00:43:04.335Z,15.50
2023-05-24T00:44:04.309Z,14.60
2023-05-24T00:45:04.305Z,14.50
2023-05-24T00:46:04.345Z,13.50
2023-05-24T00:47:04.286Z,17.60
2023-05-24T00:48:04.343Z,12.70
2023-05-24T00:49:04.259Z,14.90
2023-05-24T00:50:04.226Z,15.20
2023-05-24T00:51:04.227Z,13.90
2023-05-24T00:52:04.219Z,12.20
2023-05-24T00:53:04.211Z,16.90
2023-05-24T00:54:04.679Z,16.00
2023-05-24T00:55:04.189Z,12.80
2023-05-24T00:56:04.199Z,14.60
2023-05-24T00:57:04.169Z,15.10
2023-05-24T00:58:04.142Z,18.60
2023-05-24T00:59:04.141Z,15.20
2023-05-24T01:00:04.129Z,15.70
2023-05-24T01:01:04.146Z,11.20
2023-05-24T01:02:04.339Z,9.20
2023-05-24T01:03:04.200Z,13.10
2023-05-24T01:04:04.092Z,15.00
2023-05-24T01:05:04.075Z,14.50
2023-05-24T01:06:04.268Z,12.50
2023-05-24T01:07:04.079Z,12.30
2023-05-24T01:08:04.080Z,16.40
2023-05-24T01:09:04.056Z,11.70
2023-05-24T01:10:04.087Z,13.90
2023-05-24T01:11:04.027Z,13.00
2023-05-24T01:12:08.037Z,13.40
2023-05-24T01:13:03.999Z,13.90
2023-05-24T01:14:04.003Z,14.20
2023-05-24T01:15:03.966Z,13.40
2023-05-24T01:16:03.998Z,12.60
2023-05-24T01:17:03.963Z,16.80
2023-05-24T01:18:03.994Z,13.80
2023-05-24T01:19:03.917Z,12.50
2023-05-24T01:20:03.961Z,14.20
2023-05-24T01:21:03.896Z,13.90
2023-05-24T01:22:03.917Z,12.90
2023-05-24T01:23:03.889Z,13.40
2023-05-24T01:24:03.904Z,16.00
2023-05-24T01:25:03.904Z,12.60
2023-05-24T01:26:03.901Z,14.50
2023-05-24T01:27:03.860Z,14.70
2023-05-24T01:28:04.039Z,15.10
2023-05-24T01:29:03.832Z,15.60
2023-05-24T01:30:03.882Z,12.30
2023-05-24T01:31:03.803Z,12.70
2023-05-24T01:32:03.830Z,11.90
2023-05-24T01:33:03.812Z,14.60
2023-05-24T01:34:03.790Z,17.60
2023-05-24T01:35:03.743Z,15.40
2023-05-24T01:36:03.741Z,13.70
2023-05-24T01:37:03.731Z,11.60
2023-05-24T01:38:03.715Z,13.20
2023-05-24T01:39:03.710Z,15.90
2023-05-24T01:40:03.696Z,17.00
2023-05-24T01:41:03.698Z,15.80
2023-05-24T01:42:03.674Z,13.60
2023-05-24T01:43:03.653Z,15.20
2023-05-24T01:44:03.650Z,15.80
2023-05-24T01:45:03.662Z,13.70
2023-05-24T01:46:03.649Z,16.20
2023-05-24T01:47:03.635Z,13.70
2023-05-24T01:48:03.661Z,18.20
2023-05-24T01:49:03.582Z,13.80
2023-05-24T01:50:03.586Z,12.50
2023-05-24T01:51:03.560Z,15.20
2023-05-24T01:52:03.668Z,15.20
2023-05-24T01:53:03.541Z,14.40
2023-05-24T01:54:03.621Z,12.60
2023-05-24T01:55:03.526Z,12.30
2023-05-24T01:56:03.653Z,15.30
2023-05-24T01:57:03.507Z,19.00
2023-05-24T01:58:03.484Z,12.30
2023-05-24T01:59:03.491Z,14.40
2023-05-24T02:00:05.164Z,13.20
2023-05-24T02:01:03.473Z,12.60
2023-05-24T02:02:03.565Z,14.70
2023-05-24T02:03:03.695Z,15.80
2023-05-24T02:04:03.465Z,15.60
2023-05-24T02:05:03.413Z,14.30
2023-05-24T02:06:03.442Z,14.20
2023-05-24T02:07:03.395Z,12.30
2023-05-24T02:08:03.378Z,13.10
2023-05-24T02:09:03.363Z,16.40
2023-05-24T02:10:03.651Z,14.20
2023-05-24T02:11:03.366Z,19.60
2023-05-24T02:12:03.437Z,16.10
2023-05-24T02:13:03.403Z,16.90
2023-05-24T02:14:03.548Z,16.40
2023-05-24T02:15:03.300Z,17.00
2023-05-24T02:16:03.305Z,14.80
2023-05-24T02:17:03.467Z,14.00
2023-05-24T02:18:03.315Z,12.20
2023-05-24T02:19:03.259Z,14.10
2023-05-24T02:20:03.293Z,17.30
2023-05-24T02:21:03.328Z,16.20
2023-05-24T02:22:03.253Z,17.10
2023-05-24T02:23:03.214Z,19.00
2023-05-24T02:24:03.216Z,19.10
2023-05-24T02:25:03.221Z,15.80
2023-05-24T02:26:03.205Z,16.80
2023-05-24T02:27:03.177Z,15.80
2023-05-24T02:28:03.155Z,12.10
2023-05-24T02:29:03.146Z,15.70
2023-05-24T02:30:03.150Z,12.00
2023-05-24T02:31:03.143Z,11.40
2023-05-24T02:32:03.156Z,17.40
2023-05-24T02:33:03.203Z,13.30
2023-05-24T02:34:03.098Z,14.40
2023-05-24T02:35:03.110Z,14.30
2023-05-24T02:36:03.081Z,10.40
2023-05-24T02:37:03.063Z,13.30
2023-05-24T02:38:03.099Z,11.50
2023-05-24T02:39:03.080Z,17.20
2023-05-24T02:40:03.148Z,14.10
2023-05-24T02:41:03.044Z,13.90
2023-05-24T02:42:03.015Z,13.70
2023-05-24T02:43:03.014Z,10.60
2023-05-24T02:44:02.981Z,14.10
2023-05-24T02:45:02.970Z,12.50
2023-05-24T02:46:03.046Z,15.00
2023-05-24T02:47:02.955Z,14.00
2023-05-24T02:48:02.977Z,11.30
2023-05-24T02:49:02.926Z,10.40
2023-05-24T02:50:02.932Z,13.60
2023-05-24T02:51:02.929Z,13.20
2023-05-24T02:52:02.897Z,17.10
2023-05-24T02:53:02.901Z,10.90
2023-05-24T02:54:03.441Z,13.20
2023-05-24T02:55:02.862Z,13.30
2023-05-24T02:56:02.862Z,14.80
2023-05-24T02:57:02.854Z,15.80
2023-05-24T02:58:02.854Z,17.10
2023-05-24T02:59:02.869Z,8.90
2023-05-24T03:00:02.825Z,12.40
2023-05-24T03:01:02.796Z,14.60
2023-05-24T03:02:02.859Z,14.10
2023-05-24T03:03:02.897Z,13.60
2023-05-24T03:04:03.034Z,12.20
2023-05-24T03:05:02.753Z,12.30
2023-05-24T03:06:02.769Z,12.00
2023-05-24T03:07:02.753Z,12.30
2023-05-24T03:08:02.715Z,13.80
2023-05-24T03:09:02.711Z,15.90
2023-05-24T03:10:02.730Z,12.10
2023-05-24T03:11:02.695Z,14.10
2023-05-24T03:12:02.705Z,16.00
2023-05-24T03:13:02.691Z,15.00
2023-05-24T03:14:02.654Z,12.80
2023-05-24T03:15:02.664Z,13.30
2023-05-24T03:16:02.705Z,15.50
2023-05-24T03:17:02.641Z,13.50
2023-05-24T03:18:02.694Z,15.60
2023-05-24T03:19:02.609Z,13.90
2023-05-24T03:20:02.733Z,14.90
2023-05-24T03:21:02.614Z,15.30
2023-05-24T03:22:02.591Z,15.20
2023-05-24T03:23:02.562Z,14.30
2023-05-24T03:24:02.621Z,14.30
2023-05-24T03:25:02.546Z,13.40
2023-05-24T03:26:02.609Z,15.00
2023-05-24T03:27:02.533Z,16.10
2023-05-24T03:28:02.538Z,17.00
2023-05-24T03:29:02.495Z,14.40
2023-05-24T03:30:02.579Z,12.80
2023-05-24T03:31:02.505Z,16.00
2023-05-24T03:32:02.633Z,9.70
2023-05-24T03:33:02.525Z,14.50
2023-05-24T03:34:02.481Z,12.40
2023-05-24T03:35:02.453Z,15.90
2023-05-24T03:36:02.442Z,13.70
2023-05-24T03:37:02.400Z,15.10
2023-05-24T03:38:02.462Z,14.40
2023-05-24T03:39:02.393Z,14.20
2023-05-24T03:40:02.421Z,12.20
2023-05-24T03:41:02.364Z,10.40
2023-05-24T03:42:02.417Z,15.60
2023-05-24T03:43:04.365Z,19.00
2023-05-24T03:44:02.356Z,14.80
2023-05-24T03:45:02.310Z,17.40
2023-05-24T03:46:02.413Z,15.60
2023-05-24T03:47:02.292Z,13.90
2023-05-24T03:48:02.380Z,16.00
2023-05-24T03:49:02.281Z,15.20
2023-05-24T03:50:02.298Z,12.30
2023-05-24T03:51:02.248Z,18.30
2023-05-24T03:52:02.777Z,15.30
2023-05-24T03:53:02.253Z,13.00
2023-05-24T03:54:02.645Z,17.30
2023-05-24T03:55:02.225Z,15.50
2023-05-24T03:56:02.198Z,16.10
2023-05-24T03:57:02.179Z,17.80
2023-05-24T03:58:02.196Z,19.00
2023-05-24T03:59:02.167Z,17.70
2023-05-24T04:00:02.212Z,15.80
2023-05-24T04:01:02.160Z,12.70
2023-05-24T04:02:02.177Z,16.00
2023-05-24T04:03:02.212Z,19.10
2023-05-24T04:04:02.303Z,14.40
2023-05-24T04:05:02.097Z,16.60
2023-05-24T04:06:02.160Z,12.30
2023-05-24T04:07:02.116Z,13.50
2023-05-24T04:08:02.194Z,15.00
2023-05-24T04:09:02.056Z,16.50
2023-05-24T04:10:02.080Z,18.20
2023-05-24T04:11:02.038Z,16.60
2023-05-24T04:12:02.200Z,13.60
2023-05-24T04:13:02.048Z,14.90
2023-05-24T04:14:01.998Z,11.30
2023-05-24T04:15:02.028Z,14.40
2023-05-24T04:16:02.012Z,16.70
2023-05-24T04:17:02.307Z,16.60
2023-05-24T04:18:02.000Z,18.70
2023-05-24T04:19:02.099Z,19.20
2023-05-24T04:20:01.979Z,17.90
2023-05-24T04:21:01.930Z,12.70
2023-05-24T04:22:01.905Z,15.00
2023-05-24T04:23:01.910Z,20.80
2023-05-24T04:24:01.946Z,18.80
2023-05-24T04:25:01.916Z,13.80
2023-05-24T04:26:01.924Z,21.50
2023-05-24T04:27:01.875Z,16.70
2023-05-24T04:28:01.941Z,19.30
2023-05-24T04:29:01.844Z,20.80
2023-05-24T04:30:01.844Z,18.40
2023-05-24T04:31:01.838Z,18.80
2023-05-24T04:32:01.827Z,18.70
2023-05-24T04:33:01.851Z,18.50
2023-05-24T04:34:01.823Z,20.50
2023-05-24T04:35:01.776Z,16.30
2023-05-24T04:36:01.767Z,17.30
2023-05-24T04:37:01.753Z,18.50
2023-05-24T04:38:01.755Z,21.50
2023-05-24T04:39:01.735Z,15.30
2023-05-24T04:40:01.728Z,17.80
2023-05-24T04:41:01.705Z,19.20
2023-05-24T04:42:01.703Z,18.40
2023-05-24T04:43:01.718Z,16.70
2023-05-24T04:44:01.691Z,23.80
2023-05-24T04:45:01.684Z,13.20
2023-05-24T04:46:01.654Z,15.40
2023-05-24T04:47:01.706Z,16.20
2023-05-24T04:48:01.977Z,19.70
2023-05-24T04:49:01.629Z,15.20
2023-05-24T04:50:01.671Z,15.50
2023-05-24T04:51:01.602Z,13.50
2023-05-24T04:52:01.621Z,13.90
2023-05-24T04:53:01.581Z,17.20
2023-05-24T04:54:01.629Z,16.50
2023-05-24T04:55:01.548Z,16.30
2023-05-24T04:56:01.558Z,18.10
2023-05-24T04:57:01.530Z,18.20
2023-05-24T04:58:01.522Z,13.60
2023-05-24T04:59:01.680Z,19.50
2023-05-24T05:00:01.573Z,12.20
2023-05-24T05:01:01.483Z,11.80
2023-05-24T05:02:01.575Z,16.40
2023-05-24T05:03:01.593Z,13.80
2023-05-24T05:04:01.476Z,14.90
2023-05-24T05:05:01.452Z,13.30
2023-05-24T05:06:01.441Z,21.40
2023-05-24T05:07:01.429Z,18.70
2023-05-24T05:08:01.428Z,15.20
2023-05-24T05:09:01.819Z,17.40
2023-05-24T05:10:01.395Z,19.80
2023-05-24T05:11:01.377Z,13.00
2023-05-24T05:12:01.376Z,20.10
2023-05-24T05:13:01.374Z,16.40
2023-05-24T05:14:01.338Z,17.00
2023-05-24T05:15:01.328Z,15.90
2023-05-24T05:16:01.331Z,17.90
2023-05-24T05:17:01.311Z,13.70
2023-05-24T05:18:01.336Z,18.00
2023-05-24T05:19:01.287Z,15.40
2023-05-24T05:20:01.313Z,16.90
2023-05-24T05:21:01.269Z,16.90
2023-05-24T05:22:01.265Z,16.90
2023-05-24T05:23:01.242Z,22.10
2023-05-24T05:24:01.283Z,20.60
2023-05-24T05:25:01.237Z,20.40
2023-05-24T05:26:01.240Z,18.10
2023-05-24T05:27:01.204Z,22.10
2023-05-24T05:28:01.189Z,17.00
2023-05-24T05:29:01.224Z,20.00
2023-05-24T05:30:01.202Z,16.70
2023-05-24T05:31:01.169Z,16.60
2023-05-24T05:32:01.217Z,18.00
2023-05-24T05:33:01.202Z,20.90
2023-05-24T05:34:01.122Z,19.40
2023-05-24T05:35:01.132Z,16.80
2023-05-24T05:36:01.124Z,20.00
2023-05-24T05:37:01.110Z,20.70
2023-05-24T05:38:01.092Z,18.00
2023-05-24T05:39:01.071Z,23.00
2023-05-24T05:40:01.055Z,23.10
2023-05-24T05:41:01.112Z,19.90
2023-05-24T05:42:01.050Z,26.50
2023-05-24T05:43:01.033Z,20.60
2023-05-24T05:44:01.024Z,25.20
2023-05-24T05:45:01.021Z,18.30
2023-05-24T05:46:01.039Z,22.90
2023-05-24T05:47:01.001Z,20.30
2023-05-24T05:48:01.046Z,19.00
2023-05-24T05:49:00.955Z,21.30
2023-05-24T05:50:00.952Z,23.90
2023-05-24T05:51:00.944Z,27.90
2023-05-24T05:52:00.955Z,20.50
2023-05-24T05:53:00.923Z,22.70
2023-05-24T05:54:00.931Z,21.80
2023-05-24T05:55:00.917Z,21.00
2023-05-24T05:56:00.949Z,26.60
2023-05-24T05:57:01.756Z,20.40
2023-05-24T05:58:00.877Z,20.60
2023-05-24T05:59:00.846Z,22.80
2023-05-24T06:00:00.866Z,24.60
2023-05-24T06:01:00.826Z,21.30
2023-05-24T06:02:00.846Z,20.50
2023-05-24T06:03:00.881Z,19.60
2023-05-24T06:04:00.871Z,20.00
2023-05-24T06:05:00.797Z,20.50
2023-05-24T06:06:00.770Z,21.50
2023-05-24T06:07:00.777Z,20.80
2023-05-24T06:08:00.794Z,23.60
2023-05-24T06:09:00.747Z,19.20
2023-05-24T06:10:00.737Z,17.40
2023-05-24T06:11:00.713Z,25.00
2023-05-24T06:12:00.724Z,21.00
2023-05-24T06:13:00.685Z,23.30
2023-05-24T06:14:00.727Z,23.80
2023-05-24T06:15:00.681Z,15.40
2023-05-24T06:16:00.696Z,23.40
2023-05-24T06:17:00.653Z,24.40
2023-05-24T06:18:00.741Z,25.50
2023-05-24T06:19:06.025Z,23.90
2023-05-24T06:20:01.690Z,26.10
2023-05-24T06:21:00.610Z,23.50
2023-05-24T06:22:00.585Z,21.30
2023-05-24T06:23:00.600Z,20.50
2023-05-24T06:24:00.583Z,26.00
2023-05-24T06:25:00.562Z,25.10
2023-05-24T06:26:00.555Z,26.10
2023-05-24T06:27:00.828Z,29.80
2023-05-24T06:28:00.552Z,21.60
2023-05-24T06:29:00.529Z,25.70
2023-05-24T06:30:00.562Z,24.70
2023-05-24T06:31:00.585Z,24.00
2023-05-24T06:32:00.529Z,21.00
2023-05-24T06:33:00.548Z,25.40
2023-05-24T06:34:03.759Z,23.70
2023-05-24T06:35:00.458Z,21.10
2023-05-24T06:36:00.455Z,29.20
2023-05-24T06:37:00.438Z,24.20
2023-05-24T06:38:00.465Z,27.20
2023-05-24T06:39:00.406Z,25.60
2023-05-24T06:40:00.414Z,24.80
2023-05-24T06:41:00.381Z,21.50
2023-05-24T06:42:00.518Z,25.40
2023-05-24T06:43:00.363Z,23.90
2023-05-24T06:44:00.361Z,25.10
2023-05-24T06:45:00.375Z,27.10
2023-05-24T06:46:00.329Z,27.60
2023-05-24T06:47:00.455Z,19.60
2023-05-24T06:48:00.470Z,21.80
2023-05-24T06:49:00.444Z,28.00
2023-05-24T06:50:00.301Z,23.20
2023-05-24T06:51:00.275Z,23.90
2023-05-24T06:52:00.281Z,22.70
2023-05-24T06:53:00.251Z,20.50
2023-05-24T06:54:00.248Z,30.90
2023-05-24T06:55:00.238Z,21.90
2023-05-24T06:56:00.241Z,23.10
2023-05-24T06:57:00.221Z,22.50
2023-05-24T06:58:00.202Z,23.70
2023-05-24T06:59:00.205Z,27.00
2023-05-24T07:00:00.178Z,21.40
2023-05-24T07:01:00.213Z,24.20
2023-05-24T07:02:01.989Z,23.20
2023-05-24T07:03:00.209Z,19.60
2023-05-24T07:04:00.172Z,22.50
2023-05-24T07:05:00.197Z,24.90
2023-05-24T07:06:00.162Z,23.70
2023-05-24T07:07:00.138Z,23.10
2023-05-24T07:08:00.133Z,26.10
2023-05-24T07:09:00.084Z,23.60
2023-05-24T07:10:00.090Z,21.60
2023-05-24T07:11:00.086Z,27.80
2023-05-24T07:12:00.060Z,21.70
2023-05-24T07:13:00.129Z,23.90
2023-05-24T07:14:00.033Z,24.30
2023-05-24T07:15:00.027Z,20.00
2023-05-24T07:15:59.999Z,21.40
2023-05-24T07:17:00.174Z,22.70
2023-05-24T07:18:00.006Z,20.30
2023-05-24T07:19:01.328Z,20.10
2023-05-24T07:20:00.021Z,20.20
2023-05-24T07:20:59.942Z,16.60
2023-05-24T07:21:59.935Z,16.00
2023-05-24T07:22:59.939Z,20.00
2023-05-24T07:23:59.935Z,26.40
2023-05-24T07:24:59.908Z,18.90
2023-05-24T07:25:59.908Z,21.20
2023-05-24T07:26:59.877Z,19.40
2023-05-24T07:27:59.866Z,17.50
2023-05-24T07:28:59.882Z,20.80
2023-05-24T07:29:59.845Z,19.70
2023-05-24T07:30:59.857Z,17.90
2023-05-24T07:31:59.856Z,20.60
2023-05-24T07:32:59.961Z,19.50
2023-05-24T07:33:59.817Z,16.20
2023-05-24T07:34:59.792Z,17.80
2023-05-24T07:35:59.790Z,19.40
2023-05-24T07:36:59.762Z,20.60
2023-05-24T07:37:59.776Z,15.50
2023-05-24T07:38:59.763Z,18.70
2023-05-24T07:39:59.737Z,21.90
2023-05-24T07:40:59.715Z,18.20
2023-05-24T07:41:59.735Z,16.20
2023-05-24T07:42:59.720Z,17.60
2023-05-24T07:43:59.702Z,16.40
2023-05-24T07:44:59.677Z,16.50
2023-05-24T07:45:59.726Z,19.40
2023-05-24T07:46:59.746Z,20.90
2023-05-24T07:47:59.755Z,15.70
2023-05-24T07:48:59.649Z,19.80
2023-05-24T07:49:59.641Z,18.20
2023-05-24T07:50:59.631Z,15.90
2023-05-24T07:51:59.667Z,18.70
2023-05-24T07:52:59.621Z,24.30
2023-05-24T07:53:59.597Z,16.20
2023-05-24T07:54:59.569Z,18.20
2023-05-24T07:55:59.584Z,16.20
2023-05-24T07:56:59.573Z,20.70
2023-05-24T07:57:59.555Z,17.20
2023-05-24T07:58:59.552Z,17.00
2023-05-24T07:59:59.542Z,22.40
2023-05-24T08:00:59.524Z,22.10
2023-05-24T08:01:59.510Z,21.90
2023-05-24T08:02:59.581Z,19.40
2023-05-24T08:03:59.628Z,20.90
2023-05-24T08:04:59.551Z,17.40
2023-05-24T08:05:59.462Z,18.70
2023-05-24T08:06:59.546Z,17.30
2023-05-24T08:07:59.434Z,17.00
2023-05-24T08:08:59.408Z,16.60
2023-05-24T08:09:59.414Z,19.70
2023-05-24T08:10:59.417Z,23.60
2023-05-24T08:11:59.393Z,16.90
2023-05-24T08:12:59.367Z,17.30
2023-05-24T08:13:59.388Z,19.50
2023-05-24T08:14:59.372Z,18.70
2023-05-24T08:15:59.397Z,17.00
2023-05-24T08:16:59.322Z,20.30
2023-05-24T08:17:59.362Z,18.80
2023-05-24T08:18:59.312Z,17.00
2023-05-24T08:19:59.331Z,12.90
2023-05-24T08:20:59.278Z,14.50
2023-05-24T08:21:59.272Z,17.70
2023-05-24T08:22:59.272Z,20.40
2023-05-24T08:23:59.257Z,15.40
2023-05-24T08:24:59.243Z,15.60
2023-05-24T08:25:59.234Z,16.40
2023-05-24T08:26:59.222Z,16.80
2023-05-24T08:27:59.261Z,19.40
2023-05-24T08:28:59.200Z,18.30
2023-05-24T08:29:59.203Z,17.90
2023-05-24T08:30:59.163Z,15.00
2023-05-24T08:31:59.241Z,18.80
2023-05-24T08:32:59.218Z,12.60
2023-05-24T08:33:59.165Z,18.50
2023-05-24T08:35:14.804Z,15.30
2023-05-24T08:36:00.162Z,13.30
2023-05-24T08:36:59.103Z,12.80
2023-05-24T08:37:59.105Z,17.20
2023-05-24T08:38:59.113Z,19.80
2023-05-24T08:39:59.064Z,19.00
2023-05-24T08:40:59.077Z,15.50
2023-05-24T08:42:08.620Z,16.80
2023-05-24T08:43:00.056Z,17.20
2023-05-24T08:43:59.050Z,12.70
2023-05-24T08:44:59.031Z,13.90
2023-05-24T08:45:59.118Z,15.70
2023-05-24T08:46:59.005Z,16.00
2023-05-24T08:47:59.122Z,15.90
2023-05-24T08:48:59.002Z,15.70
2023-05-24T08:49:58.970Z,13.70
2023-05-24T08:50:58.953Z,17.80
2023-05-24T08:51:58.942Z,13.80
2023-05-24T08:52:58.965Z,19.30
2023-05-24T08:53:58.926Z,16.70
2023-05-24T08:54:58.913Z,16.50
2023-05-24T08:55:58.905Z,16.70
2023-05-24T08:56:58.898Z,16.10
2023-05-24T08:57:58.955Z,15.40
2023-05-24T08:58:58.869Z,15.40
2023-05-24T08:59:58.858Z,14.30
2023-05-24T09:00:58.862Z,20.20
2023-05-24T09:01:58.877Z,15.20
2023-05-24T09:02:58.886Z,17.40
2023-05-24T09:03:58.844Z,14.80
2023-05-24T09:04:58.808Z,15.70
2023-05-24T09:05:58.794Z,15.50
2023-05-24T09:06:58.785Z,15.30
2023-05-24T09:07:58.765Z,16.70
2023-05-24T09:08:58.759Z,14.30
2023-05-24T09:09:58.748Z,16.20
2023-05-24T09:10:59.066Z,17.10
2023-05-24T09:11:58.753Z,12.30
2023-05-24T09:12:58.716Z,16.50
2023-05-24T09:13:58.711Z,15.40
2023-05-24T09:14:58.789Z,14.70
2023-05-24T09:15:58.695Z,17.00
2023-05-24T09:16:58.668Z,16.90
2023-05-24T09:17:58.710Z,14.50
2023-05-24T09:18:58.656Z,16.70
2023-05-24T09:19:58.674Z,17.90
2023-05-24T09:20:58.712Z,14.40
2023-05-24T09:21:58.616Z,14.00
2023-05-24T09:22:58.612Z,18.30
2023-05-24T09:23:58.605Z,16.80
2023-05-24T09:24:58.590Z,17.40
2023-05-24T09:25:58.586Z,16.10
2023-05-24T09:26:58.574Z,15.00
2023-05-24T09:27:58.557Z,15.90
2023-05-24T09:28:58.543Z,14.10
2023-05-24T09:29:58.568Z,16.80
2023-05-24T09:30:58.656Z,17.50
2023-05-24T09:31:58.611Z,14.40
2023-05-24T09:32:58.642Z,18.60
2023-05-24T09:33:58.484Z,12.10
2023-05-24T09:34:58.493Z,17.60
2023-05-24T09:35:58.464Z,16.10
2023-05-24T09:36:58.458Z,17.40
2023-05-24T09:37:58.440Z,15.90
2023-05-24T09:38:58.430Z,16.80
2023-05-24T09:39:58.463Z,15.80
2023-05-24T09:40:58.422Z,14.40
2023-05-24T09:41:58.387Z,13.80
2023-05-24T09:42:58.381Z,18.90
2023-05-24T09:43:58.381Z,18.80
2023-05-24T09:44:58.377Z,16.00
2023-05-24T09:45:58.354Z,16.20
2023-05-24T09:46:58.350Z,15.80
2023-05-24T09:47:58.369Z,18.60
2023-05-24T09:48:58.368Z,20.40
2023-05-24T09:49:58.310Z,17.30
2023-05-24T09:50:58.298Z,17.60
2023-05-24T09:51:58.321Z,17.50
2023-05-24T09:52:58.290Z,17.30
2023-05-24T09:53:58.289Z,15.90
2023-05-24T09:54:58.250Z,14.20
2023-05-24T09:55:58.241Z,15.40
2023-05-24T09:56:58.234Z,15.80
2023-05-24T09:57:58.244Z,15.30
2023-05-24T09:58:58.227Z,16.80
2023-05-24T09:59:58.194Z,14.20
2023-05-24T10:00:58.218Z,15.30
2023-05-24T10:01:58.178Z,16.60
2023-05-24T10:02:58.209Z,16.40
2023-05-24T10:03:58.312Z,16.10
2023-05-24T10:04:58.342Z,16.60
2023-05-24T10:05:58.127Z,19.80
2023-05-24T10:06:58.151Z,13.90
2023-05-24T10:07:58.121Z,15.40
2023-05-24T10:08:58.110Z,13.00
2023-05-24T10:09:58.088Z,13.90
2023-05-24T10:10:58.078Z,13.80
2023-05-24T10:11:58.090Z,12.10
2023-05-24T10:12:58.056Z,14.00
2023-05-24T10:13:58.108Z,14.90
2023-05-24T10:14:58.056Z,14.20
2023-05-24T10:15:58.038Z,15.60
2023-05-24T10:16:58.090Z,12.70
2023-05-24T10:17:58.109Z,14.30
2023-05-24T10:18:57.991Z,17.90
2023-05-24T10:19:58.028Z,18.80
2023-05-24T10:20:58.340Z,15.20
2023-05-24T10:21:58.056Z,16.60
2023-05-24T10:22:57.961Z,15.80
2023-05-24T10:23:57.932Z,17.40
2023-05-24T10:24:57.937Z,15.70
2023-05-24T10:25:57.939Z,15.60
2023-05-24T10:26:57.908Z,20.70
2023-05-24T10:27:57.901Z,13.70
2023-05-24T10:28:57.890Z,15.20
2023-05-24T10:29:57.888Z,13.60
2023-05-24T10:30:57.909Z,15.30
2023-05-24T10:31:57.956Z,14.90
2023-05-24T10:32:57.879Z,13.10
2023-05-24T10:34:06.630Z,17.30
2023-05-24T10:34:58.827Z,15.40
2023-05-24T10:35:57.837Z,17.80
2023-05-24T10:36:57.792Z,18.30
2023-05-24T10:37:57.776Z,14.90
2023-05-24T10:38:57.782Z,16.20
2023-05-24T10:39:57.794Z,19.60
2023-05-24T10:40:57.745Z,16.80
2023-05-24T10:41:57.737Z,15.40
2023-05-24T10:42:57.724Z,14.30
2023-05-24T10:44:09.169Z,15.10
2023-05-24T10:44:58.713Z,17.20
2023-05-24T10:45:57.707Z,15.50
2023-05-24T10:46:57.685Z,17.40
2023-05-24T10:47:57.735Z,16.90
2023-05-24T10:48:57.680Z,14.40
2023-05-24T10:49:57.661Z,15.70
2023-05-24T10:50:57.656Z,16.50
2023-05-24T10:51:57.644Z,20.60
2023-05-24T10:52:57.636Z,15.70
2023-05-24T10:53:57.619Z,19.10
2023-05-24T10:55:03.383Z,16.80
2023-05-24T10:55:58.583Z,18.20
2023-05-24T10:56:57.569Z,17.50
2023-05-24T10:57:57.567Z,14.60
2023-05-24T10:58:57.558Z,12.60
2023-05-24T10:59:57.549Z,16.20
2023-05-24T11:00:57.527Z,13.20
2023-05-24T11:01:57.556Z,18.70
2023-05-24T11:02:57.562Z,19.50
2023-05-24T11:03:57.512Z,18.20
2023-05-24T11:04:57.532Z,19.50
2023-05-24T11:05:57.585Z,19.70
2023-05-24T11:06:57.458Z,24.20
2023-05-24T11:07:57.482Z,20.60
2023-05-24T11:08:57.445Z,19.10
2023-05-24T11:09:57.443Z,22.20
2023-05-24T11:10:57.423Z,17.30
2023-05-24T11:11:57.416Z,20.20
2023-05-24T11:12:57.401Z,17.30
2023-05-24T11:13:57.664Z,19.00
2023-05-24T11:14:57.389Z,20.20
2023-05-24T11:15:57.371Z,16.70
2023-05-24T11:16:57.405Z,19.30
2023-05-24T11:17:57.392Z,16.60
2023-05-24T11:18:57.335Z,16.80
2023-05-24T11:19:57.364Z,18.90
2023-05-24T11:20:57.315Z,17.50
2023-05-24T11:21:57.355Z,17.40
2023-05-24T11:22:57.320Z,22.50
2023-05-24T11:23:57.312Z,19.60
2023-05-24T11:24:57.284Z,21.30
2023-05-24T11:25:57.253Z,17.50
2023-05-24T11:26:57.332Z,19.20
2023-05-24T11:27:57.269Z,18.80
2023-05-24T11:28:57.243Z,21.80
2023-05-24T11:29:57.226Z,18.10
2023-05-24T11:30:57.227Z,20.10
2023-05-24T11:31:57.266Z,20.50
2023-05-24T11:32:57.270Z,21.70
2023-05-24T11:33:57.191Z,20.10
2023-05-24T11:34:57.163Z,18.20
2023-05-24T11:35:57.166Z,17.50
2023-05-24T11:36:57.141Z,19.40
2023-05-24T11:37:57.154Z,19.10
2023-05-24T11:38:57.108Z,20.70
2023-05-24T11:39:57.113Z,23.60
2023-05-24T11:40:57.116Z,16.50
2023-05-24T11:41:57.086Z,16.80
2023-05-24T11:42:57.067Z,21.00
2023-05-24T11:43:57.064Z,18.60
2023-05-24T11:44:57.072Z,19.10
2023-05-24T11:45:57.091Z,16.50
2023-05-24T11:46:57.041Z,17.80
2023-05-24T11:47:57.056Z,20.20
2023-05-24T11:48:57.009Z,21.70
2023-05-24T11:49:57.076Z,17.60
2023-05-24T11:50:57.007Z,18.20
2023-05-24T11:51:57.054Z,20.40
2023-05-24T11:52:56.960Z,20.90
2023-05-24T11:53:56.973Z,14.80
2023-05-24T11:54:56.952Z,12.60
2023-05-24T11:55:56.932Z,18.80
2023-05-24T11:56:56.910Z,14.90
2023-05-24T11:57:56.909Z,17.00
2023-05-24T11:58:56.912Z,15.00
2023-05-24T11:59:56.911Z,18.50
2023-05-24T12:00:56.881Z,16.50
2023-05-24T12:01:56.914Z,18.10
2023-05-24T12:02:57.324Z,17.80
2023-05-24T12:03:56.959Z,16.40
2023-05-24T12:04:56.868Z,17.50
2023-05-24T12:05:56.846Z,17.80
2023-05-24T12:06:56.816Z,17.90
2023-05-24T12:07:56.819Z,18.90
2023-05-24T12:08:56.800Z,19.30
2023-05-24T12:09:56.782Z,21.80
2023-05-24T12:10:56.761Z,20.20
2023-05-24T12:11:56.775Z,20.40
2023-05-24T12:12:56.745Z,19.50
2023-05-24T12:13:56.737Z,18.80
2023-05-24T12:14:56.720Z,17.20
2023-05-24T12:15:57.109Z,14.50
2023-05-24T12:16:56.703Z,17.20
2023-05-24T12:17:56.941Z,21.50
2023-05-24T12:19:05.372Z,18.70
2023-05-24T12:19:57.745Z,21.80
2023-05-24T12:20:56.672Z,20.30
2023-05-24T12:21:56.647Z,21.80
2023-05-24T12:22:56.642Z,18.70
2023-05-24T12:23:56.645Z,20.00
2023-05-24T12:24:56.605Z,20.50
2023-05-24T12:25:56.599Z,17.70
2023-05-24T12:26:56.623Z,15.80
2023-05-24T12:27:56.580Z,18.40
2023-05-24T12:28:56.572Z,18.40
2023-05-24T12:29:56.554Z,17.40
2023-05-24T12:30:56.563Z,18.60
2023-05-24T12:31:56.588Z,18.40
2023-05-24T12:32:56.601Z,15.80
2023-05-24T12:33:56.523Z,18.00
2023-05-24T12:34:56.495Z,14.70
2023-05-24T12:35:56.509Z,14.00
2023-05-24T12:36:56.489Z,18.80
2023-05-24T12:37:56.449Z,16.10
2023-05-24T12:38:56.503Z,16.60
2023-05-24T12:39:56.441Z,20.60
2023-05-24T12:41:11.419Z,21.70
2023-05-24T12:42:01.201Z,15.10
2023-05-24T12:42:56.412Z,16.80
2023-05-24T12:43:56.409Z,20.20
2023-05-24T12:44:56.394Z,17.10
2023-05-24T12:45:56.383Z,19.10
2023-05-24T12:46:56.403Z,15.00
2023-05-24T12:47:56.364Z,14.20
2023-05-24T12:48:56.327Z,14.40
2023-05-24T12:49:56.346Z,20.30
2023-05-24T12:50:56.340Z,13.00
2023-05-24T12:51:56.292Z,17.30